createdAt,value
2023-04-26T00:00:48.136Z,39.25
2023-04-26T00:01:48.151Z,38.26
2023-04-26T00:02:48.325Z,38.46
2023-04-26T00:03:48.374Z,40.98
2023-04-26T00:04:48.419Z,35.58
2023-04-26T00:05:48.456Z,37.43
2023-04-26T00:06:48.398Z,39.99
2023-04-26T00:07:48.423Z,39.78
2023-04-26T00:08:48.491Z,38.35
2023-04-26T00:09:48.529Z,38.55
2023-04-26T00:10:48.573Z,38.10
2023-04-26T00:11:48.599Z,39.67
2023-04-26T00:12:48.668Z,39.68
2023-04-26T00:13:48.706Z,38.47
2023-04-26T00:14:48.768Z,39.24
2023-04-26T00:15:48.790Z,37.74
2023-04-26T00:16:48.858Z,37.73
2023-04-26T00:17:48.907Z,39.19
2023-04-26T00:18:48.947Z,38.21
2023-04-26T00:19:49.041Z,36.71
2023-04-26T00:20:49.035Z,37.69
2023-04-26T00:21:49.100Z,36.21
2023-04-26T00:22:49.130Z,37.46
2023-04-26T00:23:49.178Z,40.23
2023-04-26T00:24:49.255Z,39.72
2023-04-26T00:25:49.276Z,42.24
2023-04-26T00:26:49.340Z,36.53
2023-04-26T00:27:49.361Z,34.44
2023-04-26T00:28:49.502Z,39.29
2023-04-26T00:29:49.467Z,39.74
2023-04-26T00:30:49.520Z,40.72
2023-04-26T00:31:49.618Z,37.30
2023-04-26T00:32:49.646Z,36.46
2023-04-26T00:33:49.638Z,38.54
2023-04-26T00:34:49.701Z,37.28
2023-04-26T00:35:49.733Z,38.68
2023-04-26T00:36:49.793Z,39.70
2023-04-26T00:37:49.857Z,38.53
2023-04-26T00:38:49.945Z,40.17
2023-04-26T00:39:49.907Z,41.84
2023-04-26T00:40:49.955Z,40.92
2023-04-26T00:41:49.994Z,37.09
2023-04-26T00:42:50.046Z,38.53
2023-04-26T00:43:50.130Z,37.62
2023-04-26T00:44:50.131Z,36.78
2023-04-26T00:45:50.266Z,38.39
2023-04-26T00:46:50.226Z,38.85
2023-04-26T00:47:50.340Z,39.61
2023-04-26T00:48:50.555Z,34.84
2023-04-26T00:49:50.384Z,39.92
2023-04-26T00:50:50.415Z,39.29
2023-04-26T00:51:50.472Z,39.18
2023-04-26T00:52:50.496Z,37.73
2023-04-26T00:53:50.570Z,37.65
2023-04-26T00:54:50.580Z,38.92
2023-04-26T00:55:50.700Z,35.59
2023-04-26T00:56:50.689Z,37.79
2023-04-26T00:57:50.747Z,37.14
2023-04-26T00:58:51.086Z,36.67
2023-04-26T00:59:50.873Z,37.05
2023-04-26T01:00:50.876Z,34.07
2023-04-26T01:01:50.918Z,38.51
2023-04-26T01:02:51.089Z,37.12
2023-04-26T01:03:51.206Z,37.76
2023-04-26T01:04:51.069Z,33.72
2023-04-26T01:05:51.091Z,37.78
2023-04-26T01:06:51.164Z,31.84
2023-04-26T01:07:51.181Z,32.98
2023-04-26T01:08:51.409Z,35.76
2023-04-26T01:09:51.258Z,34.00
2023-04-26T01:10:51.291Z,35.29
2023-04-26T01:11:51.357Z,36.42
2023-04-26T01:12:51.424Z,38.44
2023-04-26T01:13:51.474Z,34.06
2023-04-26T01:14:51.459Z,33.06
2023-04-26T01:15:51.505Z,35.71
2023-04-26T01:16:51.637Z,34.57
2023-04-26T01:17:51.711Z,31.35
2023-04-26T01:18:51.878Z,37.18
2023-04-26T01:19:51.702Z,34.72
2023-04-26T01:20:51.735Z,35.37
2023-04-26T01:21:51.802Z,35.14
2023-04-26T01:22:51.819Z,35.15
2023-04-26T01:23:51.890Z,35.02
2023-04-26T01:24:51.948Z,35.19
2023-04-26T01:25:51.988Z,34.00
2023-04-26T01:26:51.995Z,33.11
2023-04-26T01:27:52.061Z,37.57
2023-04-26T01:28:52.405Z,32.33
2023-04-26T01:29:52.164Z,33.24
2023-04-26T01:30:52.313Z,29.50
2023-04-26T01:31:52.250Z,31.99
2023-04-26T01:32:52.312Z,33.59
2023-04-26T01:33:52.383Z,30.49
2023-04-26T01:34:52.401Z,30.70
2023-04-26T01:35:52.427Z,35.91
2023-04-26T01:36:52.445Z,34.55
2023-04-26T01:37:52.496Z,31.52
2023-04-26T01:38:52.910Z,34.10
2023-04-26T01:39:52.598Z,32.99
2023-04-26T01:40:52.632Z,35.07
2023-04-26T01:41:52.675Z,30.98
2023-04-26T01:42:52.697Z,31.57
2023-04-26T01:43:52.767Z,30.03
2023-04-26T01:44:52.775Z,29.55
2023-04-26T01:45:52.844Z,31.18
2023-04-26T01:46:52.872Z,30.52
2023-04-26T01:47:52.909Z,31.56
2023-04-26T01:48:53.138Z,30.88
2023-04-26T01:49:53.030Z,30.31
2023-04-26T01:50:53.054Z,28.67
2023-04-26T01:51:53.076Z,32.95
2023-04-26T01:52:53.131Z,30.18
2023-04-26T01:53:53.159Z,29.48
2023-04-26T01:54:53.202Z,31.41
2023-04-26T01:55:53.247Z,33.53
2023-04-26T01:56:53.319Z,31.81
2023-04-26T01:57:53.339Z,32.07
2023-04-26T01:58:53.557Z,28.80
2023-04-26T01:59:53.435Z,30.12
2023-04-26T02:00:53.500Z,26.77
2023-04-26T02:01:53.553Z,28.62
2023-04-26T02:02:53.673Z,28.92
2023-04-26T02:03:53.674Z,32.48
2023-04-26T02:04:53.700Z,30.82
2023-04-26T02:05:53.821Z,29.04
2023-04-26T02:06:53.835Z,28.82
2023-04-26T02:07:53.854Z,28.22
2023-04-26T02:08:54.231Z,29.87
2023-04-26T02:09:53.919Z,28.56
2023-04-26T02:10:54.004Z,26.97
2023-04-26T02:11:54.050Z,29.04
2023-04-26T02:12:54.082Z,30.19
2023-04-26T02:13:54.156Z,28.11
2023-04-26T02:14:54.158Z,29.21
2023-04-26T02:15:54.274Z,29.19
2023-04-26T02:16:54.298Z,26.06
2023-04-26T02:17:54.349Z,32.10
2023-04-26T02:18:54.628Z,25.89
2023-04-26T02:19:54.463Z,25.58
2023-04-26T02:20:54.488Z,27.53
2023-04-26T02:21:54.558Z,27.15
2023-04-26T02:22:54.597Z,28.69
2023-04-26T02:23:54.694Z,30.49
2023-04-26T02:24:54.712Z,28.86
2023-04-26T02:25:54.783Z,29.35
2023-04-26T02:26:55.214Z,27.94
2023-04-26T02:27:54.883Z,28.17
2023-04-26T02:28:55.024Z,28.04
2023-04-26T02:29:55.015Z,30.00
2023-04-26T02:30:55.124Z,29.38
2023-04-26T02:31:55.186Z,29.28
2023-04-26T02:32:55.194Z,29.41
2023-04-26T02:33:55.218Z,29.61
2023-04-26T02:34:55.276Z,28.97
2023-04-26T02:35:55.347Z,25.83
2023-04-26T02:36:55.372Z,29.70
2023-04-26T02:37:55.449Z,28.32
2023-04-26T02:38:55.507Z,31.76
2023-04-26T02:39:55.591Z,30.27
2023-04-26T02:40:55.614Z,28.04
2023-04-26T02:41:55.688Z,29.81
2023-04-26T02:42:55.729Z,26.37
2023-04-26T02:43:55.779Z,31.74
2023-04-26T02:44:55.867Z,27.78
2023-04-26T02:45:55.914Z,30.34
2023-04-26T02:46:55.998Z,27.07
2023-04-26T02:47:56.123Z,28.96
2023-04-26T02:48:56.070Z,24.80
2023-04-26T02:49:56.182Z,27.98
2023-04-26T02:50:56.211Z,29.75
2023-04-26T02:51:56.249Z,30.65
2023-04-26T02:52:56.330Z,30.14
2023-04-26T02:53:56.365Z,30.21
2023-04-26T02:54:56.447Z,30.43
2023-04-26T02:55:56.518Z,32.23
2023-04-26T02:56:56.587Z,29.36
2023-04-26T02:57:56.653Z,28.46
2023-04-26T02:58:56.669Z,31.03
2023-04-26T02:59:56.757Z,31.18
2023-04-26T03:00:58.313Z,30.16
2023-04-26T03:01:56.922Z,32.60
2023-04-26T03:02:56.988Z,31.42
2023-04-26T03:03:56.881Z,32.45
2023-04-26T03:04:56.786Z,32.87
2023-04-26T03:05:56.848Z,29.90
2023-04-26T03:06:56.772Z,29.04
2023-04-26T03:07:56.749Z,28.73
2023-04-26T03:08:56.788Z,29.48
2023-04-26T03:09:56.724Z,27.04
2023-04-26T03:10:56.747Z,28.46
2023-04-26T03:11:56.741Z,32.00
2023-04-26T03:12:56.701Z,28.75
2023-04-26T03:13:56.733Z,32.48
2023-04-26T03:14:56.699Z,30.64
2023-04-26T03:15:56.688Z,30.57
2023-04-26T03:16:56.757Z,31.45
2023-04-26T03:17:56.686Z,31.73
2023-04-26T03:18:56.689Z,31.01
2023-04-26T03:19:56.708Z,30.59
2023-04-26T03:20:56.634Z,31.84
2023-04-26T03:21:56.649Z,30.86
2023-04-26T03:22:56.641Z,30.58
2023-04-26T03:23:56.622Z,31.81
2023-04-26T03:24:56.631Z,27.81
2023-04-26T03:25:56.613Z,27.57
2023-04-26T03:26:56.595Z,32.13
2023-04-26T03:27:56.596Z,29.57
2023-04-26T03:28:56.618Z,31.97
2023-04-26T03:29:56.717Z,31.25
2023-04-26T03:30:56.789Z,29.87
2023-04-26T03:31:56.858Z,28.86
2023-04-26T03:32:56.946Z,29.85
2023-04-26T03:33:56.902Z,29.32
2023-04-26T03:34:56.991Z,27.53
2023-04-26T03:35:57.035Z,32.51
2023-04-26T03:36:57.104Z,30.49
2023-04-26T03:37:58.700Z,27.61
2023-04-26T03:38:57.188Z,31.47
2023-04-26T03:39:57.255Z,28.12
2023-04-26T03:40:57.355Z,27.69
2023-04-26T03:41:57.373Z,33.54
2023-04-26T03:42:57.425Z,26.26
2023-04-26T03:43:57.538Z,26.87
2023-04-26T03:44:57.551Z,27.02
2023-04-26T03:45:57.665Z,26.37
2023-04-26T03:46:57.668Z,26.86
2023-04-26T03:47:57.787Z,30.00
2023-04-26T03:48:57.809Z,30.17
2023-04-26T03:49:57.842Z,28.12
2023-04-26T03:50:57.927Z,30.45
2023-04-26T03:51:57.981Z,31.33
2023-04-26T03:52:58.020Z,31.49
2023-04-26T03:53:58.085Z,28.92
2023-04-26T03:54:58.139Z,32.31
2023-04-26T03:55:58.209Z,30.31
2023-04-26T03:56:58.236Z,30.53
2023-04-26T03:57:58.304Z,27.53
2023-04-26T03:58:58.429Z,31.11
2023-04-26T03:59:58.432Z,29.46
2023-04-26T04:00:58.441Z,28.57
2023-04-26T04:01:58.516Z,29.28
2023-04-26T04:02:58.739Z,30.31
2023-04-26T04:03:59.121Z,29.29
2023-04-26T04:04:58.850Z,31.21
2023-04-26T04:05:58.691Z,28.60
2023-04-26T04:06:58.794Z,28.04
2023-04-26T04:07:58.821Z,29.55
2023-04-26T04:08:58.881Z,30.35
2023-04-26T04:09:58.939Z,29.23
2023-04-26T04:10:58.976Z,27.72
2023-04-26T04:11:59.025Z,28.54
2023-04-26T04:12:59.083Z,31.06
2023-04-26T04:13:59.162Z,25.06
2023-04-26T04:14:59.148Z,28.36
2023-04-26T04:15:59.217Z,29.36
2023-04-26T04:16:59.272Z,27.61
2023-04-26T04:17:59.327Z,30.96
2023-04-26T04:18:59.357Z,29.28
2023-04-26T04:19:59.420Z,29.36
2023-04-26T04:20:59.448Z,29.03
2023-04-26T04:21:59.514Z,28.05
2023-04-26T04:22:59.564Z,30.63
2023-04-26T04:23:59.592Z,29.66
2023-04-26T04:24:59.663Z,29.59
2023-04-26T04:25:59.741Z,28.13
2023-04-26T04:26:59.759Z,27.84
2023-04-26T04:27:59.809Z,30.28
2023-04-26T04:28:59.853Z,31.66
2023-04-26T04:29:59.884Z,29.17
2023-04-26T04:30:59.997Z,29.32
2023-04-26T04:32:00.006Z,30.84
2023-04-26T04:33:00.096Z,28.36
2023-04-26T04:34:00.123Z,30.47
2023-04-26T04:35:00.161Z,31.89
2023-04-26T04:36:00.203Z,26.49
2023-04-26T04:37:00.200Z,29.74
2023-04-26T04:38:00.255Z,29.10
2023-04-26T04:39:00.288Z,30.23
2023-04-26T04:40:00.290Z,28.85
2023-04-26T04:41:00.362Z,29.97
2023-04-26T04:42:00.394Z,31.97
2023-04-26T04:43:00.398Z,27.69
2023-04-26T04:44:00.463Z,31.29
2023-04-26T04:45:00.499Z,31.32
2023-04-26T04:46:00.581Z,30.13
2023-04-26T04:47:00.688Z,28.67
2023-04-26T04:48:00.618Z,27.72
2023-04-26T04:49:00.606Z,29.74
2023-04-26T04:50:00.684Z,28.77
2023-04-26T04:51:00.659Z,33.10
2023-04-26T04:52:00.700Z,26.79
2023-04-26T04:53:00.752Z,28.01
2023-04-26T04:54:00.764Z,29.44
2023-04-26T04:55:00.804Z,26.02
2023-04-26T04:56:00.836Z,29.08
2023-04-26T04:57:00.885Z,25.68
2023-04-26T04:58:00.898Z,26.79
2023-04-26T04:59:00.919Z,28.84
2023-04-26T05:00:00.984Z,28.27
2023-04-26T05:01:01.022Z,31.29
2023-04-26T05:02:01.090Z,30.08
2023-04-26T05:03:01.314Z,27.36
2023-04-26T05:04:01.274Z,25.82
2023-04-26T05:05:01.251Z,28.10
2023-04-26T05:06:01.248Z,29.61
2023-04-26T05:07:01.266Z,28.34
2023-04-26T05:08:01.346Z,27.47
2023-04-26T05:09:01.374Z,30.84
2023-04-26T05:10:01.438Z,29.80
2023-04-26T05:11:01.457Z,29.96
2023-04-26T05:12:01.472Z,30.33
2023-04-26T05:13:01.537Z,28.07
2023-04-26T05:14:01.562Z,27.55
2023-04-26T05:15:01.611Z,28.23
2023-04-26T05:16:01.660Z,31.02
2023-04-26T05:17:01.731Z,26.18
2023-04-26T05:18:01.753Z,28.31
2023-04-26T05:19:01.766Z,27.93
2023-04-26T05:20:01.817Z,30.49
2023-04-26T05:21:01.853Z,28.60
2023-04-26T05:22:01.862Z,27.52
2023-04-26T05:23:01.969Z,26.45
2023-04-26T05:24:01.902Z,25.92
2023-04-26T05:25:01.902Z,30.72
2023-04-26T05:26:01.933Z,31.00
2023-04-26T05:27:02.099Z,29.64
2023-04-26T05:28:01.990Z,29.81
2023-04-26T05:29:02.081Z,27.06
2023-04-26T05:30:02.083Z,28.32
2023-04-26T05:31:02.223Z,28.67
2023-04-26T05:32:02.267Z,29.64
2023-04-26T05:33:02.278Z,25.00
2023-04-26T05:34:02.340Z,28.00
2023-04-26T05:35:02.402Z,29.35
2023-04-26T05:36:03.153Z,27.88
2023-04-26T05:37:02.493Z,28.80
2023-04-26T05:38:02.529Z,30.66
2023-04-26T05:39:02.659Z,32.33
2023-04-26T05:40:02.618Z,37.21
2023-04-26T05:41:02.635Z,34.86
2023-04-26T05:42:02.646Z,38.21
2023-04-26T05:43:02.749Z,39.26
2023-04-26T05:44:02.686Z,41.24
2023-04-26T05:45:03.274Z,45.91
2023-04-26T05:46:02.763Z,50.63
2023-04-26T05:47:02.727Z,53.27
2023-04-26T05:48:02.723Z,50.22
2023-04-26T05:49:02.665Z,59.44
2023-04-26T05:50:03.247Z,57.20
2023-04-26T05:51:02.753Z,61.58
2023-04-26T05:52:02.939Z,75.83
2023-04-26T05:53:03.009Z,70.60
2023-04-26T05:54:02.981Z,81.03
2023-04-26T05:55:03.045Z,86.69
2023-04-26T05:56:03.042Z,87.98
2023-04-26T05:57:03.126Z,94.39
2023-04-26T05:58:03.143Z,97.62
2023-04-26T05:59:03.211Z,98.90
2023-04-26T06:00:03.379Z,102.99
2023-04-26T06:01:03.255Z,104.01
2023-04-26T06:02:03.346Z,110.36
2023-04-26T06:03:03.520Z,114.71
2023-04-26T06:04:03.866Z,118.18
2023-04-26T06:05:03.553Z,122.15
2023-04-26T06:06:03.436Z,124.05
2023-04-26T06:07:03.421Z,127.49
2023-04-26T06:08:03.430Z,132.28
2023-04-26T06:09:03.448Z,134.35
2023-04-26T06:10:03.466Z,134.78
2023-04-26T06:11:03.467Z,138.52
2023-04-26T06:12:03.451Z,146.44
2023-04-26T06:13:03.488Z,148.74
2023-04-26T06:14:03.464Z,149.92
2023-04-26T06:15:03.541Z,157.67
2023-04-26T06:16:03.465Z,157.32
2023-04-26T06:17:03.539Z,165.03
2023-04-26T06:18:03.574Z,163.46
2023-04-26T06:19:03.475Z,168.30
2023-04-26T06:20:03.488Z,169.43
2023-04-26T06:21:03.510Z,173.00
2023-04-26T06:22:03.536Z,174.16
2023-04-26T06:23:03.547Z,180.84
2023-04-26T06:24:03.640Z,182.82
2023-04-26T06:25:03.588Z,184.46
2023-04-26T06:26:03.610Z,188.50
2023-04-26T06:27:03.621Z,188.40
2023-04-26T06:28:03.614Z,190.37
2023-04-26T06:29:03.612Z,197.68
2023-04-26T06:30:03.677Z,204.28
2023-04-26T06:31:03.663Z,204.56
2023-04-26T06:32:03.670Z,207.35
2023-04-26T06:33:03.778Z,210.47
2023-04-26T06:34:03.678Z,203.45
2023-04-26T06:35:03.708Z,202.78
2023-04-26T06:36:03.736Z,188.12
2023-04-26T06:37:03.752Z,176.31
2023-04-26T06:38:03.791Z,170.27
2023-04-26T06:39:03.819Z,164.96
2023-04-26T06:40:04.277Z,161.33
2023-04-26T06:41:03.788Z,149.73
2023-04-26T06:42:03.818Z,141.12
2023-04-26T06:43:03.834Z,132.84
2023-04-26T06:44:03.785Z,131.62
2023-04-26T06:45:03.827Z,124.61
2023-04-26T06:46:03.906Z,119.03
2023-04-26T06:47:03.913Z,119.69
2023-04-26T06:48:04.043Z,109.72
2023-04-26T06:49:03.888Z,97.72
2023-04-26T06:50:03.905Z,94.54
2023-04-26T06:51:03.920Z,86.02
2023-04-26T06:52:03.976Z,84.43
2023-04-26T06:53:04.014Z,78.66
2023-04-26T06:54:03.980Z,76.53
2023-04-26T06:55:04.200Z,72.65
2023-04-26T06:56:03.972Z,68.40
2023-04-26T06:57:03.926Z,70.10
2023-04-26T06:58:04.004Z,66.12
2023-04-26T06:59:03.965Z,62.34
2023-04-26T07:00:04.016Z,56.03
2023-04-26T07:01:03.982Z,55.72
2023-04-26T07:02:03.977Z,52.34
2023-04-26T07:03:04.126Z,49.74
2023-04-26T07:04:04.188Z,48.48
2023-04-26T07:05:04.128Z,48.82
2023-04-26T07:06:03.999Z,42.83
2023-04-26T07:07:04.066Z,49.83
2023-04-26T07:08:04.048Z,41.59
2023-04-26T07:09:04.049Z,44.91
2023-04-26T07:10:04.089Z,43.10
2023-04-26T07:11:04.053Z,46.97
2023-04-26T07:12:04.067Z,48.89
2023-04-26T07:13:04.074Z,52.01
2023-04-26T07:14:04.100Z,52.19
2023-04-26T07:15:04.122Z,49.84
2023-04-26T07:16:04.176Z,50.92
2023-04-26T07:17:04.168Z,43.03
2023-04-26T07:18:04.227Z,46.32
2023-04-26T07:19:04.186Z,43.02
2023-04-26T07:20:04.220Z,42.93
2023-04-26T07:21:04.232Z,41.80
2023-04-26T07:22:04.233Z,42.79
2023-04-26T07:23:04.274Z,41.96
2023-04-26T07:24:04.457Z,38.91
2023-04-26T07:25:04.344Z,43.37
2023-04-26T07:26:04.334Z,40.22
2023-04-26T07:27:04.332Z,35.53
2023-04-26T07:28:04.367Z,40.10
2023-04-26T07:29:04.322Z,39.65
2023-04-26T07:30:04.335Z,40.38
2023-04-26T07:31:06.023Z,34.20
2023-04-26T07:32:04.367Z,44.74
2023-04-26T07:33:04.471Z,51.36
2023-04-26T07:34:04.331Z,60.25
2023-04-26T07:35:04.339Z,55.65
2023-04-26T07:36:04.704Z,130.31
2023-04-26T07:37:04.344Z,182.34
2023-04-26T07:38:04.300Z,189.42
2023-04-26T07:39:04.310Z,187.78
2023-04-26T07:40:04.299Z,171.51
2023-04-26T07:41:04.305Z,155.17
2023-04-26T07:42:04.275Z,139.68
2023-04-26T07:43:04.260Z,127.98
2023-04-26T07:44:04.249Z,130.77
2023-04-26T07:45:04.236Z,131.14
2023-04-26T07:46:04.278Z,126.46
2023-04-26T07:47:04.264Z,118.87
2023-04-26T07:48:04.354Z,117.63
2023-04-26T07:49:04.240Z,120.72
2023-04-26T07:50:04.233Z,125.32
2023-04-26T07:51:04.305Z,104.89
2023-04-26T07:52:04.215Z,100.09
2023-04-26T07:53:04.213Z,100.82
2023-04-26T07:54:04.223Z,96.92
2023-04-26T07:55:04.208Z,93.03
2023-04-26T07:56:04.245Z,96.12
2023-04-26T07:57:04.340Z,102.83
2023-04-26T07:58:04.170Z,103.80
2023-04-26T07:59:04.172Z,99.39
2023-04-26T08:00:04.136Z,106.00
2023-04-26T08:01:04.191Z,109.36
2023-04-26T08:02:04.171Z,109.20
2023-04-26T08:03:04.212Z,111.51
2023-04-26T08:04:04.333Z,115.14
2023-04-26T08:05:04.232Z,117.27
2023-04-26T08:06:04.267Z,116.17
2023-04-26T08:07:04.110Z,118.91
2023-04-26T08:08:04.093Z,126.80
2023-04-26T08:09:04.095Z,126.74
2023-04-26T08:10:04.122Z,131.24
2023-04-26T08:11:04.794Z,130.97
2023-04-26T08:12:04.128Z,130.48
2023-04-26T08:13:04.741Z,132.31
2023-04-26T08:14:04.090Z,128.22
2023-04-26T08:15:04.052Z,131.74
2023-04-26T08:16:04.033Z,130.13
2023-04-26T08:17:04.080Z,131.02
2023-04-26T08:18:04.880Z,129.87
2023-04-26T08:19:04.158Z,125.61
2023-04-26T08:20:04.040Z,129.12
2023-04-26T08:21:04.033Z,131.83
2023-04-26T08:22:03.989Z,115.10
2023-04-26T08:23:03.993Z,126.45
2023-04-26T08:24:03.985Z,151.98
2023-04-26T08:25:04.059Z,129.83
2023-04-26T08:26:04.060Z,124.38
2023-04-26T08:27:04.045Z,131.14
2023-04-26T08:28:03.960Z,129.38
2023-04-26T08:29:03.976Z,129.44
2023-04-26T08:30:03.986Z,127.04
2023-04-26T08:31:04.045Z,128.74
2023-04-26T08:32:03.950Z,125.43
2023-04-26T08:33:04.040Z,124.91
2023-04-26T08:34:03.917Z,122.26
2023-04-26T08:35:03.910Z,118.69
2023-04-26T08:36:03.917Z,117.28
2023-04-26T08:37:03.903Z,115.87
2023-04-26T08:38:03.951Z,113.89
2023-04-26T08:39:05.714Z,108.06
2023-04-26T08:40:03.877Z,108.22
2023-04-26T08:41:04.252Z,101.88
2023-04-26T08:42:03.849Z,88.01
2023-04-26T08:43:04.738Z,93.82
2023-04-26T08:44:03.895Z,103.76
2023-04-26T08:45:03.874Z,114.95
2023-04-26T08:46:03.961Z,116.35
2023-04-26T08:47:03.968Z,119.97
2023-04-26T08:48:04.584Z,119.85
2023-04-26T08:49:03.817Z,118.84
2023-04-26T08:50:03.886Z,118.75
2023-04-26T08:51:04.265Z,121.21
2023-04-26T08:52:04.813Z,124.94
2023-04-26T08:53:03.913Z,125.20
2023-04-26T08:54:04.849Z,126.37
2023-04-26T08:55:03.851Z,127.50
2023-04-26T08:56:03.792Z,126.06
2023-04-26T08:57:03.809Z,129.72
2023-04-26T08:58:03.863Z,131.51
2023-04-26T08:59:03.920Z,135.35
2023-04-26T09:00:03.995Z,133.28
2023-04-26T09:01:04.276Z,130.23
2023-04-26T09:02:04.104Z,130.27
2023-04-26T09:03:04.224Z,131.39
2023-04-26T09:04:04.252Z,122.97
2023-04-26T09:05:04.330Z,112.29
2023-04-26T09:06:04.505Z,97.16
2023-04-26T09:07:04.261Z,93.14
2023-04-26T09:08:04.324Z,87.05
2023-04-26T09:09:04.411Z,7.49
2023-04-26T09:10:04.433Z,0.00
2023-04-26T09:11:04.762Z,26.11
2023-04-26T09:12:04.500Z,52.08
2023-04-26T09:13:05.259Z,48.50
2023-04-26T09:14:04.528Z,18.47
2023-04-26T09:15:04.521Z,34.50
2023-04-26T09:16:05.254Z,41.39
2023-04-26T09:17:04.550Z,39.20
2023-04-26T09:18:04.633Z,46.72
2023-04-26T09:19:04.550Z,49.32
2023-04-26T09:20:07.209Z,39.58
2023-04-26T09:21:04.609Z,44.27
2023-04-26T09:22:04.551Z,43.53
2023-04-26T09:23:04.583Z,32.50
2023-04-26T09:24:04.629Z,8.75
2023-04-26T09:25:04.555Z,30.12
2023-04-26T09:26:04.776Z,41.53
2023-04-26T09:27:04.595Z,44.44
2023-04-26T09:28:04.573Z,48.02
2023-04-26T09:29:04.534Z,55.76
2023-04-26T09:30:04.537Z,32.25
2023-04-26T09:31:04.777Z,28.12
2023-04-26T09:32:04.516Z,37.30
2023-04-26T09:33:04.585Z,48.82
2023-04-26T09:34:04.535Z,57.34
2023-04-26T09:35:04.503Z,58.27
2023-04-26T09:36:04.453Z,67.74
2023-04-26T09:37:04.567Z,64.34
2023-04-26T09:38:09.695Z,57.51
2023-04-26T09:39:05.473Z,42.46
2023-04-26T09:40:04.528Z,58.29
2023-04-26T09:41:04.764Z,65.92
2023-04-26T09:42:04.484Z,76.20
2023-04-26T09:43:04.498Z,88.81
2023-04-26T09:44:04.467Z,88.77
2023-04-26T09:45:04.423Z,86.51
2023-04-26T09:46:04.428Z,82.84
2023-04-26T09:47:04.556Z,89.10
2023-04-26T09:48:04.570Z,79.47
2023-04-26T09:49:04.392Z,60.50
2023-04-26T09:50:04.505Z,73.48
2023-04-26T09:51:04.762Z,61.29
2023-04-26T09:52:04.491Z,68.55
2023-04-26T09:53:04.371Z,71.87
2023-04-26T09:54:04.402Z,50.82
2023-04-26T09:55:04.389Z,21.16
2023-04-26T09:56:04.345Z,61.25
2023-04-26T09:57:05.268Z,61.58
2023-04-26T09:58:04.343Z,64.56
2023-04-26T09:59:04.337Z,73.83
2023-04-26T10:00:04.316Z,70.85
2023-04-26T10:01:04.347Z,78.89
2023-04-26T10:02:04.334Z,79.32
2023-04-26T10:03:04.341Z,71.12
2023-04-26T10:04:04.455Z,73.79
2023-04-26T10:05:04.513Z,85.37
2023-04-26T10:06:04.302Z,86.62
2023-04-26T10:07:04.302Z,88.30
2023-04-26T10:08:04.288Z,83.05
2023-04-26T10:09:04.243Z,75.44
2023-04-26T10:10:04.258Z,79.24
2023-04-26T10:11:04.226Z,54.38
2023-04-26T10:12:04.214Z,68.16
2023-04-26T10:13:04.251Z,73.91
2023-04-26T10:14:04.241Z,69.72
2023-04-26T10:15:04.203Z,84.81
2023-04-26T10:16:04.212Z,89.80
2023-04-26T10:17:04.299Z,95.67
2023-04-26T10:18:04.183Z,101.09
2023-04-26T10:19:04.178Z,105.74
2023-04-26T10:20:04.246Z,89.70
2023-04-26T10:21:04.164Z,31.49
2023-04-26T10:22:04.181Z,63.05
2023-04-26T10:23:04.154Z,66.09
2023-04-26T10:24:04.203Z,85.14
2023-04-26T10:25:04.141Z,77.15
2023-04-26T10:26:04.163Z,51.74
2023-04-26T10:27:04.169Z,53.63
2023-04-26T10:28:04.142Z,36.05
2023-04-26T10:29:04.337Z,47.57
2023-04-26T10:30:04.242Z,49.97
2023-04-26T10:31:04.289Z,47.95
2023-04-26T10:32:04.182Z,62.20
2023-04-26T10:33:04.210Z,64.59
2023-04-26T10:34:04.142Z,70.14
2023-04-26T10:35:04.165Z,77.90
2023-04-26T10:36:04.332Z,82.00
2023-04-26T10:37:04.151Z,90.16
2023-04-26T10:38:04.182Z,93.31
2023-04-26T10:39:04.174Z,101.14
2023-04-26T10:40:04.162Z,101.04
2023-04-26T10:41:04.284Z,113.46
2023-04-26T10:42:04.178Z,114.23
2023-04-26T10:43:04.212Z,113.10
2023-04-26T10:44:04.227Z,117.44
2023-04-26T10:45:04.261Z,121.04
2023-04-26T10:46:04.374Z,124.61
2023-04-26T10:47:04.345Z,122.64
2023-04-26T10:48:04.473Z,125.02
2023-04-26T10:49:04.394Z,124.59
2023-04-26T10:50:05.543Z,128.58
2023-04-26T10:51:04.504Z,130.16
2023-04-26T10:52:04.507Z,138.15
2023-04-26T10:53:04.586Z,137.37
2023-04-26T10:54:04.598Z,138.22
2023-04-26T10:55:04.646Z,140.16
2023-04-26T10:56:04.660Z,141.42
2023-04-26T10:57:04.729Z,145.39
2023-04-26T10:58:04.746Z,149.01
2023-04-26T10:59:08.469Z,149.38
2023-04-26T11:00:05.803Z,149.58
2023-04-26T11:01:04.863Z,150.17
2023-04-26T11:02:04.764Z,151.17
2023-04-26T11:03:04.921Z,152.10
2023-04-26T11:04:04.915Z,155.58
2023-04-26T11:05:04.831Z,157.09
2023-04-26T11:06:04.742Z,160.28
2023-04-26T11:07:04.734Z,163.17
2023-04-26T11:08:04.853Z,163.04
2023-04-26T11:09:04.811Z,164.11
2023-04-26T11:10:04.865Z,164.08
2023-04-26T11:11:04.935Z,164.71
2023-04-26T11:12:04.973Z,166.81
2023-04-26T11:13:05.039Z,168.16
2023-04-26T11:14:05.086Z,168.54
2023-04-26T11:15:05.151Z,168.93
2023-04-26T11:16:05.332Z,169.35
2023-04-26T11:17:05.280Z,170.31
2023-04-26T11:18:05.390Z,171.75
2023-04-26T11:19:05.460Z,172.18
2023-04-26T11:20:05.468Z,173.36
2023-04-26T11:21:05.924Z,174.38
2023-04-26T11:22:05.624Z,172.76
2023-04-26T11:23:05.623Z,173.97
2023-04-26T11:24:05.804Z,174.68
2023-04-26T11:25:05.764Z,175.84
2023-04-26T11:26:05.925Z,176.37
2023-04-26T11:27:05.898Z,177.67
2023-04-26T11:28:05.921Z,178.17
2023-04-26T11:29:06.013Z,177.56
2023-04-26T11:30:06.068Z,176.70
2023-04-26T11:31:06.151Z,177.34
2023-04-26T11:32:06.205Z,178.64
2023-04-26T11:33:06.342Z,178.30
2023-04-26T11:34:06.353Z,178.69
2023-04-26T11:35:06.381Z,179.29
2023-04-26T11:36:06.836Z,180.50
2023-04-26T11:37:06.496Z,181.74
2023-04-26T11:38:06.561Z,180.51
2023-04-26T11:39:06.637Z,180.25
2023-04-26T11:40:06.703Z,180.33
2023-04-26T11:41:06.821Z,179.93
2023-04-26T11:42:06.853Z,182.22
2023-04-26T11:43:06.865Z,181.36
2023-04-26T11:44:06.995Z,180.66
2023-04-26T11:45:07.005Z,182.54
2023-04-26T11:46:07.197Z,184.07
2023-04-26T11:47:07.170Z,183.20
2023-04-26T11:48:07.210Z,182.26
2023-04-26T11:49:07.249Z,182.99
2023-04-26T11:50:07.295Z,182.05
2023-04-26T11:51:07.803Z,181.94
2023-04-26T11:52:07.466Z,184.08
2023-04-26T11:53:07.534Z,183.14
2023-04-26T11:54:07.580Z,183.52
2023-04-26T11:55:07.686Z,183.70
2023-04-26T11:56:07.777Z,184.09
2023-04-26T11:57:07.741Z,183.94
2023-04-26T11:58:07.814Z,183.22
2023-04-26T11:59:07.895Z,181.77
2023-04-26T12:00:07.947Z,181.26
2023-04-26T12:01:08.027Z,182.34
2023-04-26T12:02:08.192Z,177.87
2023-04-26T12:03:08.398Z,177.18
2023-04-26T12:04:08.320Z,178.27
2023-04-26T12:05:08.326Z,179.94
2023-04-26T12:06:08.396Z,180.87
2023-04-26T12:07:08.408Z,179.81
2023-04-26T12:08:08.452Z,179.53
2023-04-26T12:09:08.510Z,179.61
2023-04-26T12:10:08.548Z,179.83
2023-04-26T12:11:08.661Z,177.97
2023-04-26T12:12:08.745Z,179.32
2023-04-26T12:13:08.762Z,180.04
2023-04-26T12:14:08.823Z,179.71
2023-04-26T12:15:08.860Z,181.68
2023-04-26T12:16:18.556Z,180.39
2023-04-26T12:17:09.921Z,180.56
2023-04-26T12:18:09.052Z,180.83
2023-04-26T12:19:08.948Z,181.20
2023-04-26T12:20:08.936Z,181.76
2023-04-26T12:21:09.873Z,182.55
2023-04-26T12:22:08.898Z,183.49
2023-04-26T12:23:08.878Z,182.26
2023-04-26T12:24:08.850Z,182.25
2023-04-26T12:25:08.907Z,181.34
2023-04-26T12:26:09.123Z,181.58
2023-04-26T12:27:09.017Z,182.16
2023-04-26T12:28:09.104Z,183.30
2023-04-26T12:29:09.110Z,182.25
2023-04-26T12:30:09.172Z,183.76
2023-04-26T12:31:09.345Z,181.72
2023-04-26T12:32:09.353Z,182.13
2023-04-26T12:33:17.210Z,181.49
2023-04-26T12:34:10.368Z,181.60
2023-04-26T12:35:09.436Z,182.00
2023-04-26T12:36:09.375Z,181.65
2023-04-26T12:37:09.341Z,181.44
2023-04-26T12:38:09.350Z,181.74
2023-04-26T12:39:09.356Z,182.49
2023-04-26T12:40:09.311Z,180.81
2023-04-26T12:41:10.357Z,181.86
2023-04-26T12:42:09.332Z,181.06
2023-04-26T12:43:09.335Z,181.19
2023-04-26T12:44:09.432Z,179.96
2023-04-26T12:45:09.493Z,180.27